sensor_id;sensor_type;location;lat;lon;timestamp;P1;durP1;ratioP1;P2;durP2;ratioP2
50821;SDS011;36794;51.212;6.980;2024-02-26T00:00:36;0.60;;;0.40;;
50821;SDS011;36794;51.212;6.980;2024-02-26T00:03:02;1.27;;;0.53;;
50821;SDS011;36794;51.212;6.980;2024-02-26T00:05:28;0.90;;;0.50;;
50821;SDS011;36794;51.212;6.980;2024-02-26T00:07:56;3.47;;;0.50;;
50821;SDS011;36794;51.212;6.980;2024-02-26T00:10:22;0.93;;;0.50;;
50821;SDS011;36794;51.212;6.980;2024-02-26T00:12:49;1.43;;;0.50;;
50821;SDS011;36794;51.212;6.980;2024-02-26T00:15:15;2.43;;;0.60;;
50821;SDS011;36794;51.212;6.980;2024-02-26T00:17:41;1.90;;;0.70;;
50821;SDS011;36794;51.212;6.980;2024-02-26T00:20:07;1.07;;;0.63;;
50821;SDS011;36794;51.212;6.980;2024-02-26T00:22:33;1.33;;;0.40;;
50821;SDS011;36794;51.212;6.980;2024-02-26T00:24:59;0.43;;;0.30;;
50821;SDS011;36794;51.212;6.980;2024-02-26T00:27:25;0.70;;;0.50;;
50821;SDS011;36794;51.212;6.980;2024-02-26T00:29:51;0.93;;;0.40;;
50821;SDS011;36794;51.212;6.980;2024-02-26T00:32:17;1.17;;;0.33;;
50821;SDS011;36794;51.212;6.980;2024-02-26T00:34:43;0.73;;;0.43;;
50821;SDS011;36794;51.212;6.980;2024-02-26T00:37:09;4.20;;;0.50;;
50821;SDS011;36794;51.212;6.980;2024-02-26T00:39:35;2.30;;;0.40;;
50821;SDS011;36794;51.212;6.980;2024-02-26T00:42:01;1.53;;;0.40;;
50821;SDS011;36794;51.212;6.980;2024-02-26T00:44:27;1.50;;;0.40;;
50821;SDS011;36794;51.212;6.980;2024-02-26T00:46:53;1.80;;;0.50;;
50821;SDS011;36794;51.212;6.980;2024-02-26T00:49:19;2.80;;;0.57;;
50821;SDS011;36794;51.212;6.980;2024-02-26T00:51:46;1.60;;;0.50;;
50821;SDS011;36794;51.212;6.980;2024-02-26T00:54:12;1.13;;;0.40;;
50821;SDS011;36794;51.212;6.980;2024-02-26T00:56:38;2.83;;;0.50;;
50821;SDS011;36794;51.212;6.980;2024-02-26T00:59:04;1.70;;;0.50;;
50821;SDS011;36794;51.212;6.980;2024-02-26T01:01:30;1.13;;;0.40;;
50821;SDS011;36794;51.212;6.980;2024-02-26T01:03:55;0.83;;;0.33;;
50821;SDS011;36794;51.212;6.980;2024-02-26T01:06:21;3.43;;;0.60;;
50821;SDS011;36794;51.212;6.980;2024-02-26T01:08:47;1.17;;;0.50;;
50821;SDS011;36794;51.212;6.980;2024-02-26T01:11:13;1.43;;;0.50;;
50821;SDS011;36794;51.212;6.980;2024-02-26T01:13:39;0.97;;;0.40;;
50821;SDS011;36794;51.212;6.980;2024-02-26T01:16:05;0.83;;;0.40;;
50821;SDS011;36794;51.212;6.980;2024-02-26T01:18:31;0.57;;;0.40;;
50821;SDS011;36794;51.212;6.980;2024-02-26T01:20:57;1.37;;;0.50;;
50821;SDS011;36794;51.212;6.980;2024-02-26T01:23:23;1.47;;;0.30;;
50821;SDS011;36794;51.212;6.980;2024-02-26T01:25:49;1.07;;;0.73;;
50821;SDS011;36794;51.212;6.980;2024-02-26T01:28:15;1.17;;;0.50;;
50821;SDS011;36794;51.212;6.980;2024-02-26T01:30:41;0.60;;;0.40;;
50821;SDS011;36794;51.212;6.980;2024-02-26T01:33:07;1.73;;;0.40;;
50821;SDS011;36794;51.212;6.980;2024-02-26T01:35:33;1.73;;;0.60;;
50821;SDS011;36794;51.212;6.980;2024-02-26T01:37:59;5.77;;;0.63;;
50821;SDS011;36794;51.212;6.980;2024-02-26T01:40:28;1.23;;;0.60;;
50821;SDS011;36794;51.212;6.980;2024-02-26T01:42:54;1.27;;;0.60;;
50821;SDS011;36794;51.212;6.980;2024-02-26T01:45:20;2.40;;;0.80;;
50821;SDS011;36794;51.212;6.980;2024-02-26T01:47:52;3.20;;;0.90;;
50821;SDS011;36794;51.212;6.980;2024-02-26T01:50:19;1.70;;;0.70;;
50821;SDS011;36794;51.212;6.980;2024-02-26T01:52:49;2.67;;;0.70;;
50821;SDS011;36794;51.212;6.980;2024-02-26T01:55:15;2.50;;;0.80;;
50821;SDS011;36794;51.212;6.980;2024-02-26T01:57:42;1.47;;;0.60;;
50821;SDS011;36794;51.212;6.980;2024-02-26T02:00:09;2.20;;;0.70;;
50821;SDS011;36794;51.212;6.980;2024-02-26T02:02:36;2.93;;;0.70;;
50821;SDS011;36794;51.212;6.980;2024-02-26T02:05:03;4.83;;;0.87;;
50821;SDS011;36794;51.212;6.980;2024-02-26T02:07:30;6.80;;;1.07;;
50821;SDS011;36794;51.212;6.980;2024-02-26T02:09:56;1.20;;;0.90;;
50821;SDS011;36794;51.212;6.980;2024-02-26T02:12:22;2.03;;;1.00;;
50821;SDS011;36794;51.212;6.980;2024-02-26T02:14:48;3.33;;;0.97;;
50821;SDS011;36794;51.212;6.980;2024-02-26T02:17:14;3.60;;;0.83;;
50821;SDS011;36794;51.212;6.980;2024-02-26T02:19:40;2.67;;;0.90;;
50821;SDS011;36794;51.212;6.980;2024-02-26T02:22:06;1.67;;;0.90;;
50821;SDS011;36794;51.212;6.980;2024-02-26T02:24:32;1.53;;;0.80;;
50821;SDS011;36794;51.212;6.980;2024-02-26T02:26:58;2.53;;;0.97;;
50821;SDS011;36794;51.212;6.980;2024-02-26T02:29:24;3.43;;;1.03;;
50821;SDS011;36794;51.212;6.980;2024-02-26T02:31:52;2.00;;;0.80;;
50821;SDS011;36794;51.212;6.980;2024-02-26T02:34:18;1.70;;;0.87;;
50821;SDS011;36794;51.212;6.980;2024-02-26T02:36:53;2.97;;;0.80;;
50821;SDS011;36794;51.212;6.980;2024-02-26T02:39:20;3.10;;;0.93;;
50821;SDS011;36794;51.212;6.980;2024-02-26T02:41:46;2.50;;;1.13;;
50821;SDS011;36794;51.212;6.980;2024-02-26T02:44:12;3.40;;;1.30;;
50821;SDS011;36794;51.212;6.980;2024-02-26T02:46:38;3.43;;;0.90;;
50821;SDS011;36794;51.212;6.980;2024-02-26T02:49:08;5.77;;;1.17;;
50821;SDS011;36794;51.212;6.980;2024-02-26T02:51:35;3.90;;;1.20;;
50821;SDS011;36794;51.212;6.980;2024-02-26T02:54:01;4.53;;;1.93;;
50821;SDS011;36794;51.212;6.980;2024-02-26T02:56:27;2.37;;;1.10;;
50821;SDS011;36794;51.212;6.980;2024-02-26T02:58:53;2.60;;;1.30;;
50821;SDS011;36794;51.212;6.980;2024-02-26T03:01:19;2.87;;;1.00;;
50821;SDS011;36794;51.212;6.980;2024-02-26T03:03:45;2.40;;;1.07;;
50821;SDS011;36794;51.212;6.980;2024-02-26T03:06:11;3.47;;;1.20;;
50821;SDS011;36794;51.212;6.980;2024-02-26T03:08:37;3.07;;;1.10;;
50821;SDS011;36794;51.212;6.980;2024-02-26T03:11:04;2.00;;;1.00;;
50821;SDS011;36794;51.212;6.980;2024-02-26T03:13:30;3.47;;;1.30;;
50821;SDS011;36794;51.212;6.980;2024-02-26T03:15:56;2.73;;;1.20;;
50821;SDS011;36794;51.212;6.980;2024-02-26T03:18:22;1.93;;;1.13;;
50821;SDS011;36794;51.212;6.980;2024-02-26T03:20:49;3.03;;;1.13;;
50821;SDS011;36794;51.212;6.980;2024-02-26T03:23:15;2.60;;;1.33;;
50821;SDS011;36794;51.212;6.980;2024-02-26T03:25:42;2.50;;;1.30;;
50821;SDS011;36794;51.212;6.980;2024-02-26T03:28:08;3.07;;;1.23;;
50821;SDS011;36794;51.212;6.980;2024-02-26T03:30:34;3.30;;;1.30;;
50821;SDS011;36794;51.212;6.980;2024-02-26T03:33:00;4.00;;;1.30;;
50821;SDS011;36794;51.212;6.980;2024-02-26T03:35:26;2.77;;;1.23;;
50821;SDS011;36794;51.212;6.980;2024-02-26T03:37:52;2.13;;;1.20;;
50821;SDS011;36794;51.212;6.980;2024-02-26T03:40:18;3.43;;;1.40;;
50821;SDS011;36794;51.212;6.980;2024-02-26T03:42:44;2.43;;;1.10;;
50821;SDS011;36794;51.212;6.980;2024-02-26T03:45:10;1.67;;;0.90;;
50821;SDS011;36794;51.212;6.980;2024-02-26T03:47:37;2.80;;;1.10;;
50821;SDS011;36794;51.212;6.980;2024-02-26T03:50:05;2.97;;;1.00;;
50821;SDS011;36794;51.212;6.980;2024-02-26T03:52:32;4.67;;;1.10;;
50821;SDS011;36794;51.212;6.980;2024-02-26T03:54:58;1.40;;;0.70;;
50821;SDS011;36794;51.212;6.980;2024-02-26T03:57:24;1.60;;;0.90;;
50821;SDS011;36794;51.212;6.980;2024-02-26T03:59:49;3.77;;;1.00;;
50821;SDS011;36794;51.212;6.980;2024-02-26T04:02:16;1.87;;;1.00;;
50821;SDS011;36794;51.212;6.980;2024-02-26T04:04:42;1.30;;;0.87;;
50821;SDS011;36794;51.212;6.980;2024-02-26T04:07:07;1.80;;;1.10;;
50821;SDS011;36794;51.212;6.980;2024-02-26T04:09:33;3.13;;;1.30;;
50821;SDS011;36794;51.212;6.980;2024-02-26T04:12:00;1.73;;;1.00;;
50821;SDS011;36794;51.212;6.980;2024-02-26T04:14:26;1.93;;;1.00;;
50821;SDS011;36794;51.212;6.980;2024-02-26T04:16:52;1.47;;;0.90;;
50821;SDS011;36794;51.212;6.980;2024-02-26T04:19:19;1.37;;;0.83;;
50821;SDS011;36794;51.212;6.980;2024-02-26T04:21:45;1.37;;;0.87;;
50821;SDS011;36794;51.212;6.980;2024-02-26T04:24:11;2.77;;;1.27;;
50821;SDS011;36794;51.212;6.980;2024-02-26T04:26:37;2.60;;;1.10;;
50821;SDS011;36794;51.212;6.980;2024-02-26T04:29:04;3.17;;;1.10;;
50821;SDS011;36794;51.212;6.980;2024-02-26T04:31:29;1.90;;;1.30;;
50821;SDS011;36794;51.212;6.980;2024-02-26T04:33:57;6.23;;;1.27;;
50821;SDS011;36794;51.212;6.980;2024-02-26T04:36:23;4.37;;;1.47;;
50821;SDS011;36794;51.212;6.980;2024-02-26T04:38:50;2.03;;;1.00;;
50821;SDS011;36794;51.212;6.980;2024-02-26T04:41:19;2.37;;;1.20;;
50821;SDS011;36794;51.212;6.980;2024-02-26T04:43:45;2.47;;;1.10;;
50821;SDS011;36794;51.212;6.980;2024-02-26T04:46:11;1.83;;;0.97;;
50821;SDS011;36794;51.212;6.980;2024-02-26T04:48:37;3.97;;;1.20;;
50821;SDS011;36794;51.212;6.980;2024-02-26T04:51:03;3.57;;;1.10;;
50821;SDS011;36794;51.212;6.980;2024-02-26T04:53:29;1.60;;;1.00;;
50821;SDS011;36794;51.212;6.980;2024-02-26T04:55:55;3.17;;;1.10;;
50821;SDS011;36794;51.212;6.980;2024-02-26T04:58:21;3.33;;;1.03;;
50821;SDS011;36794;51.212;6.980;2024-02-26T05:00:47;2.17;;;1.20;;
50821;SDS011;36794;51.212;6.980;2024-02-26T05:03:13;3.17;;;1.33;;
50821;SDS011;36794;51.212;6.980;2024-02-26T05:05:40;1.90;;;1.17;;
50821;SDS011;36794;51.212;6.980;2024-02-26T05:08:06;3.73;;;1.67;;
50821;SDS011;36794;51.212;6.980;2024-02-26T05:10:32;2.97;;;1.23;;
50821;SDS011;36794;51.212;6.980;2024-02-26T05:12:58;2.97;;;1.50;;
50821;SDS011;36794;51.212;6.980;2024-02-26T05:15:24;1.93;;;1.40;;
50821;SDS011;36794;51.212;6.980;2024-02-26T05:17:50;6.10;;;1.50;;
50821;SDS011;36794;51.212;6.980;2024-02-26T05:20:17;2.87;;;1.70;;
50821;SDS011;36794;51.212;6.980;2024-02-26T05:22:43;2.40;;;1.70;;
50821;SDS011;36794;51.212;6.980;2024-02-26T05:25:09;3.60;;;1.50;;
50821;SDS011;36794;51.212;6.980;2024-02-26T05:27:35;6.80;;;1.70;;
50821;SDS011;36794;51.212;6.980;2024-02-26T05:30:01;3.43;;;1.80;;
50821;SDS011;36794;51.212;6.980;2024-02-26T05:32:28;4.87;;;1.90;;
50821;SDS011;36794;51.212;6.980;2024-02-26T05:34:55;4.17;;;1.77;;
50821;SDS011;36794;51.212;6.980;2024-02-26T05:37:21;3.27;;;2.00;;
50821;SDS011;36794;51.212;6.980;2024-02-26T05:39:47;2.47;;;1.70;;
50821;SDS011;36794;51.212;6.980;2024-02-26T05:42:13;3.77;;;1.83;;
50821;SDS011;36794;51.212;6.980;2024-02-26T05:44:39;4.83;;;2.07;;
50821;SDS011;36794;51.212;6.980;2024-02-26T05:47:05;6.37;;;2.23;;
50821;SDS011;36794;51.212;6.980;2024-02-26T05:49:31;3.13;;;2.00;;
50821;SDS011;36794;51.212;6.980;2024-02-26T05:51:58;4.00;;;2.17;;
50821;SDS011;36794;51.212;6.980;2024-02-26T05:54:24;3.20;;;1.93;;
50821;SDS011;36794;51.212;6.980;2024-02-26T05:56:50;3.27;;;2.20;;
50821;SDS011;36794;51.212;6.980;2024-02-26T05:59:16;3.20;;;1.90;;
50821;SDS011;36794;51.212;6.980;2024-02-26T06:01:42;2.63;;;2.00;;
50821;SDS011;36794;51.212;6.980;2024-02-26T06:04:08;7.67;;;2.30;;
50821;SDS011;36794;51.212;6.980;2024-02-26T06:06:34;2.80;;;2.00;;
50821;SDS011;36794;51.212;6.980;2024-02-26T06:09:00;4.67;;;2.33;;
50821;SDS011;36794;51.212;6.980;2024-02-26T06:11:26;3.23;;;2.20;;
50821;SDS011;36794;51.212;6.980;2024-02-26T06:13:53;6.97;;;2.63;;
50821;SDS011;36794;51.212;6.980;2024-02-26T06:16:19;4.30;;;2.30;;
50821;SDS011;36794;51.212;6.980;2024-02-26T06:18:45;6.23;;;2.70;;
50821;SDS011;36794;51.212;6.980;2024-02-26T06:21:11;3.37;;;2.47;;
50821;SDS011;36794;51.212;6.980;2024-02-26T06:23:37;3.87;;;2.40;;
50821;SDS011;36794;51.212;6.980;2024-02-26T06:26:03;4.57;;;2.70;;
50821;SDS011;36794;51.212;6.980;2024-02-26T06:28:29;6.43;;;2.30;;
50821;SDS011;36794;51.212;6.980;2024-02-26T06:30:57;3.93;;;2.53;;
50821;SDS011;36794;51.212;6.980;2024-02-26T06:33:23;6.60;;;2.87;;
50821;SDS011;36794;51.212;6.980;2024-02-26T06:35:49;3.50;;;2.63;;
50821;SDS011;36794;51.212;6.980;2024-02-26T06:38:15;6.33;;;3.30;;
50821;SDS011;36794;51.212;6.980;2024-02-26T06:40:42;4.93;;;2.70;;
50821;SDS011;36794;51.212;6.980;2024-02-26T06:43:08;6.53;;;3.00;;
50821;SDS011;36794;51.212;6.980;2024-02-26T06:45:34;3.73;;;2.97;;
50821;SDS011;36794;51.212;6.980;2024-02-26T06:48:00;6.10;;;3.10;;
50821;SDS011;36794;51.212;6.980;2024-02-26T06:50:26;3.83;;;3.07;;
50821;SDS011;36794;51.212;6.980;2024-02-26T06:52:52;9.43;;;3.10;;
50821;SDS011;36794;51.212;6.980;2024-02-26T06:55:18;8.87;;;3.80;;
50821;SDS011;36794;51.212;6.980;2024-02-26T06:57:44;5.00;;;3.60;;
50821;SDS011;36794;51.212;6.980;2024-02-26T07:00:10;5.53;;;3.30;;
50821;SDS011;36794;51.212;6.980;2024-02-26T07:02:39;5.77;;;3.20;;
50821;SDS011;36794;51.212;6.980;2024-02-26T07:05:05;5.97;;;3.30;;
50821;SDS011;36794;51.212;6.980;2024-02-26T07:07:32;4.87;;;3.00;;
50821;SDS011;36794;51.212;6.980;2024-02-26T07:09:57;5.80;;;3.60;;
50821;SDS011;36794;51.212;6.980;2024-02-26T07:12:24;4.67;;;3.30;;
50821;SDS011;36794;51.212;6.980;2024-02-26T07:14:50;6.13;;;3.77;;
50821;SDS011;36794;51.212;6.980;2024-02-26T07:17:17;7.03;;;3.70;;
50821;SDS011;36794;51.212;6.980;2024-02-26T07:19:43;4.63;;;3.37;;
50821;SDS011;36794;51.212;6.980;2024-02-26T07:22:09;5.23;;;3.17;;
50821;SDS011;36794;51.212;6.980;2024-02-26T07:24:35;6.20;;;3.70;;
50821;SDS011;36794;51.212;6.980;2024-02-26T07:27:01;6.90;;;3.70;;
50821;SDS011;36794;51.212;6.980;2024-02-26T07:29:27;5.03;;;3.90;;
50821;SDS011;36794;51.212;6.980;2024-02-26T07:31:55;8.30;;;4.10;;
50821;SDS011;36794;51.212;6.980;2024-02-26T07:34:23;7.80;;;3.87;;
50821;SDS011;36794;51.212;6.980;2024-02-26T07:37:02;7.00;;;4.30;;
50821;SDS011;36794;51.212;6.980;2024-02-26T07:41:54;6.77;;;4.93;;
50821;SDS011;36794;51.212;6.980;2024-02-26T07:44:20;5.60;;;3.63;;
50821;SDS011;36794;51.212;6.980;2024-02-26T07:46:46;6.30;;;3.77;;
50821;SDS011;36794;51.212;6.980;2024-02-26T07:49:12;11.33;;;4.87;;
50821;SDS011;36794;51.212;6.980;2024-02-26T07:51:38;8.57;;;3.77;;
50821;SDS011;36794;51.212;6.980;2024-02-26T07:54:04;4.93;;;3.53;;
50821;SDS011;36794;51.212;6.980;2024-02-26T07:56:30;5.03;;;3.87;;
50821;SDS011;36794;51.212;6.980;2024-02-26T07:58:56;5.33;;;3.40;;
50821;SDS011;36794;51.212;6.980;2024-02-26T08:04:14;6.87;;;3.33;;
50821;SDS011;36794;51.212;6.980;2024-02-26T08:06:40;6.03;;;3.60;;
50821;SDS011;36794;51.212;6.980;2024-02-26T08:09:25;6.37;;;3.63;;
50821;SDS011;36794;51.212;6.980;2024-02-26T08:11:51;7.10;;;3.60;;
50821;SDS011;36794;51.212;6.980;2024-02-26T08:14:17;5.83;;;3.70;;
50821;SDS011;36794;51.212;6.980;2024-02-26T08:16:43;7.77;;;3.53;;
50821;SDS011;36794;51.212;6.980;2024-02-26T08:19:09;7.77;;;3.97;;
50821;SDS011;36794;51.212;6.980;2024-02-26T08:21:38;6.23;;;3.67;;
50821;SDS011;36794;51.212;6.980;2024-02-26T08:24:04;5.37;;;3.20;;
50821;SDS011;36794;51.212;6.980;2024-02-26T08:26:30;5.53;;;3.23;;
50821;SDS011;36794;51.212;6.980;2024-02-26T08:28:56;4.00;;;3.30;;
50821;SDS011;36794;51.212;6.980;2024-02-26T08:31:23;4.17;;;2.90;;
50821;SDS011;36794;51.212;6.980;2024-02-26T08:33:49;7.67;;;2.97;;
50821;SDS011;36794;51.212;6.980;2024-02-26T08:36:15;4.87;;;3.10;;
50821;SDS011;36794;51.212;6.980;2024-02-26T08:38:41;6.53;;;2.50;;
50821;SDS011;36794;51.212;6.980;2024-02-26T08:41:07;4.50;;;2.53;;
50821;SDS011;36794;51.212;6.980;2024-02-26T08:43:33;4.40;;;2.60;;
50821;SDS011;36794;51.212;6.980;2024-02-26T08:45:59;5.07;;;2.43;;
50821;SDS011;36794;51.212;6.980;2024-02-26T08:48:25;4.23;;;2.27;;
50821;SDS011;36794;51.212;6.980;2024-02-26T08:50:51;4.10;;;2.67;;
50821;SDS011;36794;51.212;6.980;2024-02-26T08:53:17;6.80;;;3.10;;
50821;SDS011;36794;51.212;6.980;2024-02-26T08:55:43;4.70;;;2.60;;
50821;SDS011;36794;51.212;6.980;2024-02-26T08:58:09;5.60;;;2.50;;
50821;SDS011;36794;51.212;6.980;2024-02-26T09:00:34;7.97;;;2.70;;
50821;SDS011;36794;51.212;6.980;2024-02-26T09:03:00;4.20;;;2.70;;
50821;SDS011;36794;51.212;6.980;2024-02-26T09:05:26;5.87;;;2.97;;
50821;SDS011;36794;51.212;6.980;2024-02-26T09:07:52;6.10;;;2.80;;
50821;SDS011;36794;51.212;6.980;2024-02-26T09:10:19;3.93;;;2.50;;
50821;SDS011;36794;51.212;6.980;2024-02-26T09:12:45;5.10;;;2.70;;
50821;SDS011;36794;51.212;6.980;2024-02-26T09:15:18;4.70;;;2.93;;
50821;SDS011;36794;51.212;6.980;2024-02-26T09:17:44;6.37;;;2.53;;
50821;SDS011;36794;51.212;6.980;2024-02-26T09:20:10;6.00;;;2.60;;
50821;SDS011;36794;51.212;6.980;2024-02-26T09:22:38;5.53;;;3.17;;
50821;SDS011;36794;51.212;6.980;2024-02-26T09:25:04;4.80;;;2.50;;
50821;SDS011;36794;51.212;6.980;2024-02-26T09:27:31;5.77;;;3.20;;
50821;SDS011;36794;51.212;6.980;2024-02-26T09:29:57;4.83;;;2.60;;
50821;SDS011;36794;51.212;6.980;2024-02-26T09:32:23;5.40;;;3.40;;
50821;SDS011;36794;51.212;6.980;2024-02-26T09:34:49;5.20;;;2.70;;
50821;SDS011;36794;51.212;6.980;2024-02-26T09:37:15;5.37;;;2.60;;
50821;SDS011;36794;51.212;6.980;2024-02-26T09:39:41;5.93;;;3.03;;
50821;SDS011;36794;51.212;6.980;2024-02-26T09:42:08;4.67;;;2.70;;
50821;SDS011;36794;51.212;6.980;2024-02-26T09:44:35;5.27;;;2.60;;
50821;SDS011;36794;51.212;6.980;2024-02-26T09:47:03;4.17;;;2.43;;
50821;SDS011;36794;51.212;6.980;2024-02-26T09:49:31;2.93;;;2.30;;
50821;SDS011;36794;51.212;6.980;2024-02-26T09:51:57;3.50;;;2.73;;
50821;SDS011;36794;51.212;6.980;2024-02-26T09:54:23;5.43;;;2.57;;
50821;SDS011;36794;51.212;6.980;2024-02-26T09:56:51;7.53;;;2.70;;
50821;SDS011;36794;51.212;6.980;2024-02-26T09:59:18;3.67;;;2.77;;
50821;SDS011;36794;51.212;6.980;2024-02-26T10:01:45;5.33;;;2.50;;
50821;SDS011;36794;51.212;6.980;2024-02-26T10:04:11;3.37;;;2.70;;
50821;SDS011;36794;51.212;6.980;2024-02-26T10:06:38;4.63;;;2.20;;
50821;SDS011;36794;51.212;6.980;2024-02-26T10:09:04;3.97;;;2.40;;
50821;SDS011;36794;51.212;6.980;2024-02-26T10:11:32;5.17;;;3.13;;
50821;SDS011;36794;51.212;6.980;2024-02-26T10:13:58;6.53;;;2.43;;
50821;SDS011;36794;51.212;6.980;2024-02-26T10:16:25;6.07;;;2.60;;
50821;SDS011;36794;51.212;6.980;2024-02-26T10:18:52;6.97;;;3.43;;
50821;SDS011;36794;51.212;6.980;2024-02-26T10:21:21;6.00;;;3.60;;
50821;SDS011;36794;51.212;6.980;2024-02-26T10:23:47;5.17;;;3.17;;
50821;SDS011;36794;51.212;6.980;2024-02-26T10:26:14;6.40;;;3.70;;
50821;SDS011;36794;51.212;6.980;2024-02-26T10:28:43;6.93;;;3.47;;
50821;SDS011;36794;51.212;6.980;2024-02-26T10:31:10;9.17;;;4.47;;
50821;SDS011;36794;51.212;6.980;2024-02-26T10:33:36;6.07;;;4.17;;
50821;SDS011;36794;51.212;6.980;2024-02-26T10:36:06;5.93;;;3.80;;
50821;SDS011;36794;51.212;6.980;2024-02-26T10:38:32;5.10;;;2.90;;
50821;SDS011;36794;51.212;6.980;2024-02-26T10:40:58;5.07;;;3.50;;
50821;SDS011;36794;51.212;6.980;2024-02-26T10:43:27;7.53;;;4.13;;
50821;SDS011;36794;51.212;6.980;2024-02-26T10:45:56;6.03;;;3.60;;
50821;SDS011;36794;51.212;6.980;2024-02-26T10:48:22;9.47;;;3.33;;
50821;SDS011;36794;51.212;6.980;2024-02-26T10:50:49;6.53;;;4.03;;
50821;SDS011;36794;51.212;6.980;2024-02-26T10:53:26;7.00;;;3.70;;
50821;SDS011;36794;51.212;6.980;2024-02-26T10:55:55;10.40;;;4.00;;
50821;SDS011;36794;51.212;6.980;2024-02-26T10:58:22;5.30;;;3.57;;
50821;SDS011;36794;51.212;6.980;2024-02-26T11:00:50;6.53;;;3.80;;
50821;SDS011;36794;51.212;6.980;2024-02-26T11:03:16;6.33;;;3.97;;
50821;SDS011;36794;51.212;6.980;2024-02-26T11:05:44;9.60;;;4.20;;
50821;SDS011;36794;51.212;6.980;2024-02-26T11:08:11;9.37;;;4.33;;
50821;SDS011;36794;51.212;6.980;2024-02-26T11:10:37;9.33;;;4.17;;
50821;SDS011;36794;51.212;6.980;2024-02-26T11:13:04;6.90;;;3.53;;
50821;SDS011;36794;51.212;6.980;2024-02-26T11:15:30;11.10;;;4.27;;
50821;SDS011;36794;51.212;6.980;2024-02-26T11:17:58;6.73;;;3.60;;
50821;SDS011;36794;51.212;6.980;2024-02-26T11:20:25;12.67;;;4.50;;
50821;SDS011;36794;51.212;6.980;2024-02-26T11:22:53;5.83;;;4.33;;
50821;SDS011;36794;51.212;6.980;2024-02-26T11:25:19;10.07;;;4.50;;
50821;SDS011;36794;51.212;6.980;2024-02-26T11:27:48;8.87;;;4.30;;
50821;SDS011;36794;51.212;6.980;2024-02-26T11:30:16;8.40;;;4.83;;
50821;SDS011;36794;51.212;6.980;2024-02-26T11:32:46;5.57;;;4.00;;
50821;SDS011;36794;51.212;6.980;2024-02-26T11:35:12;6.47;;;4.37;;
50821;SDS011;36794;51.212;6.980;2024-02-26T11:37:40;6.27;;;4.13;;
50821;SDS011;36794;51.212;6.980;2024-02-26T11:40:27;6.13;;;3.40;;
50821;SDS011;36794;51.212;6.980;2024-02-26T11:42:55;5.57;;;3.23;;
50821;SDS011;36794;51.212;6.980;2024-02-26T11:48:21;10.90;;;3.77;;
50821;SDS011;36794;51.212;6.980;2024-02-26T11:50:50;7.83;;;3.73;;
50821;SDS011;36794;51.212;6.980;2024-02-26T11:53:39;7.33;;;3.83;;
50821;SDS011;36794;51.212;6.980;2024-02-26T11:56:15;8.87;;;4.50;;
50821;SDS011;36794;51.212;6.980;2024-02-26T11:58:47;5.47;;;4.45;;
50821;SDS011;36794;51.212;6.980;2024-02-26T12:04:01;9.15;;;4.32;;
50821;SDS011;36794;51.212;6.980;2024-02-26T12:06:36;7.43;;;4.40;;
50821;SDS011;36794;51.212;6.980;2024-02-26T12:09:05;7.97;;;4.47;;
50821;SDS011;36794;51.212;6.980;2024-02-26T12:11:33;8.07;;;4.90;;
50821;SDS011;36794;51.212;6.980;2024-02-26T12:14:10;6.57;;;4.67;;
50821;SDS011;36794;51.212;6.980;2024-02-26T12:16:49;9.37;;;5.67;;
50821;SDS011;36794;51.212;6.980;2024-02-26T12:19:15;11.53;;;5.03;;
50821;SDS011;36794;51.212;6.980;2024-02-26T12:21:42;7.30;;;4.97;;
50821;SDS011;36794;51.212;6.980;2024-02-26T12:24:24;10.60;;;5.50;;
50821;SDS011;36794;51.212;6.980;2024-02-26T12:26:51;9.83;;;5.50;;
50821;SDS011;36794;51.212;6.980;2024-02-26T12:32:21;6.93;;;4.50;;
50821;SDS011;36794;51.212;6.980;2024-02-26T12:34:51;11.30;;;6.67;;
50821;SDS011;36794;51.212;6.980;2024-02-26T12:37:17;9.03;;;6.33;;
50821;SDS011;36794;51.212;6.980;2024-02-26T12:39:43;13.97;;;7.60;;
50821;SDS011;36794;51.212;6.980;2024-02-26T12:42:10;10.03;;;6.90;;
50821;SDS011;36794;51.212;6.980;2024-02-26T12:44:37;12.90;;;7.23;;
50821;SDS011;36794;51.212;6.980;2024-02-26T12:47:05;12.50;;;7.67;;
50821;SDS011;36794;51.212;6.980;2024-02-26T12:49:31;12.87;;;7.90;;
50821;SDS011;36794;51.212;6.980;2024-02-26T12:51:58;14.17;;;8.03;;
50821;SDS011;36794;51.212;6.980;2024-02-26T12:54:35;12.87;;;7.83;;
50821;SDS011;36794;51.212;6.980;2024-02-26T12:57:17;13.20;;;7.87;;
50821;SDS011;36794;51.212;6.980;2024-02-26T12:59:46;13.90;;;7.90;;
50821;SDS011;36794;51.212;6.980;2024-02-26T13:02:12;12.30;;;7.83;;
50821;SDS011;36794;51.212;6.980;2024-02-26T13:04:38;13.23;;;8.87;;
50821;SDS011;36794;51.212;6.980;2024-02-26T13:07:04;15.83;;;8.67;;
50821;SDS011;36794;51.212;6.980;2024-02-26T13:09:46;15.70;;;8.90;;
50821;SDS011;36794;51.212;6.980;2024-02-26T13:12:12;12.77;;;8.20;;
50821;SDS011;36794;51.212;6.980;2024-02-26T13:14:39;16.23;;;9.63;;
50821;SDS011;36794;51.212;6.980;2024-02-26T13:17:07;14.20;;;8.80;;
50821;SDS011;36794;51.212;6.980;2024-02-26T13:19:34;14.23;;;9.03;;
50821;SDS011;36794;51.212;6.980;2024-02-26T13:22:06;14.00;;;8.63;;
50821;SDS011;36794;51.212;6.980;2024-02-26T13:24:33;18.83;;;9.50;;
50821;SDS011;36794;51.212;6.980;2024-02-26T13:27:02;15.13;;;9.00;;
50821;SDS011;36794;51.212;6.980;2024-02-26T13:32:50;14.53;;;9.07;;
50821;SDS011;36794;51.212;6.980;2024-02-26T13:35:16;14.57;;;9.40;;
50821;SDS011;36794;51.212;6.980;2024-02-26T13:37:43;13.83;;;8.87;;
50821;SDS011;36794;51.212;6.980;2024-02-26T13:40:11;11.63;;;8.30;;
50821;SDS011;36794;51.212;6.980;2024-02-26T13:42:38;12.03;;;7.80;;
50821;SDS011;36794;51.212;6.980;2024-02-26T13:45:06;14.37;;;8.03;;
50821;SDS011;36794;51.212;6.980;2024-02-26T13:47:35;12.23;;;8.00;;
50821;SDS011;36794;51.212;6.980;2024-02-26T13:50:02;13.67;;;7.80;;
50821;SDS011;36794;51.212;6.980;2024-02-26T13:52:37;12.17;;;8.13;;
50821;SDS011;36794;51.212;6.980;2024-02-26T13:55:03;12.90;;;8.40;;
50821;SDS011;36794;51.212;6.980;2024-02-26T14:00:41;12.23;;;9.10;;
50821;SDS011;36794;51.212;6.980;2024-02-26T14:03:07;11.97;;;8.30;;
50821;SDS011;36794;51.212;6.980;2024-02-26T14:05:33;14.30;;;8.93;;
50821;SDS011;36794;51.212;6.980;2024-02-26T14:08:00;12.97;;;9.03;;
50821;SDS011;36794;51.212;6.980;2024-02-26T14:10:26;21.97;;;8.77;;
50821;SDS011;36794;51.212;6.980;2024-02-26T14:12:55;15.43;;;9.57;;
50821;SDS011;36794;51.212;6.980;2024-02-26T14:15:27;12.87;;;8.60;;
50821;SDS011;36794;51.212;6.980;2024-02-26T14:17:53;13.23;;;9.10;;
50821;SDS011;36794;51.212;6.980;2024-02-26T14:21:07;16.77;;;9.33;;
50821;SDS011;36794;51.212;6.980;2024-02-26T14:23:33;12.23;;;8.03;;
50821;SDS011;36794;51.212;6.980;2024-02-26T14:32:53;12.80;;;8.90;;
50821;SDS011;36794;51.212;6.980;2024-02-26T14:35:17;12.40;;;8.10;;
50821;SDS011;36794;51.212;6.980;2024-02-26T14:37:55;15.27;;;8.33;;
50821;SDS011;36794;51.212;6.980;2024-02-26T14:40:26;14.50;;;7.80;;
50821;SDS011;36794;51.212;6.980;2024-02-26T14:43:01;14.93;;;7.97;;
50821;SDS011;36794;51.212;6.980;2024-02-26T14:45:29;12.97;;;8.00;;
50821;SDS011;36794;51.212;6.980;2024-02-26T14:47:55;10.17;;;7.23;;
50821;SDS011;36794;51.212;6.980;2024-02-26T14:50:42;11.13;;;7.47;;
50821;SDS011;36794;51.212;6.980;2024-02-26T14:53:10;12.47;;;7.63;;
50821;SDS011;36794;51.212;6.980;2024-02-26T14:55:36;10.87;;;6.80;;
50821;SDS011;36794;51.212;6.980;2024-02-26T14:58:09;9.93;;;6.57;;
50821;SDS011;36794;51.212;6.980;2024-02-26T15:00:55;10.27;;;6.60;;
50821;SDS011;36794;51.212;6.980;2024-02-26T15:03:21;11.30;;;6.80;;
50821;SDS011;36794;51.212;6.980;2024-02-26T15:14:51;14.60;;;6.50;;
50821;SDS011;36794;51.212;6.980;2024-02-26T15:17:54;10.93;;;5.77;;
50821;SDS011;36794;51.212;6.980;2024-02-26T15:32:24;9.90;;;5.97;;
50821;SDS011;36794;51.212;6.980;2024-02-26T15:34:59;13.23;;;6.27;;